sensor_id;sensor_type;location;lat;lon;timestamp;pressure;altitude;pressure_sealevel;temperature;humidity
1736;BME280;865;53.672;10.250;2022-08-04T00:01:38;101059.38;;;21.17;91.47
1736;BME280;865;53.672;10.250;2022-08-04T00:07:15;101064.59;;;21.19;90.87
1736;BME280;865;53.672;10.250;2022-08-04T00:09:49;101057.06;;;21.11;91.26
1736;BME280;865;53.672;10.250;2022-08-04T00:12:21;101058.56;;;21.01;92.00
1736;BME280;865;53.672;10.250;2022-08-04T00:14:59;101062.13;;;20.85;92.99
1736;BME280;865;53.672;10.250;2022-08-04T00:17:38;101058.56;;;21.01;92.89
1736;BME280;865;53.672;10.250;2022-08-04T00:20:07;101057.78;;;20.99;92.43
1736;BME280;865;53.672;10.250;2022-08-04T00:22:34;101066.34;;;21.04;92.09
1736;BME280;865;53.672;10.250;2022-08-04T00:25:04;101056.63;;;20.88;92.99
1736;BME280;865;53.672;10.250;2022-08-04T00:27:32;101060.13;;;20.73;93.67
1736;BME280;865;53.672;10.250;2022-08-04T00:30:02;101055.78;;;20.72;93.83
1736;BME280;865;53.672;10.250;2022-08-04T00:32:29;101060.13;;;20.73;93.86
1736;BME280;865;53.672;10.250;2022-08-04T00:34:59;101057.50;;;20.73;93.46
1736;BME280;865;53.672;10.250;2022-08-04T00:37:27;101061.00;;;20.58;94.08
1736;BME280;865;53.672;10.250;2022-08-04T00:39:53;101058.69;;;20.52;94.60
1736;BME280;865;53.672;10.250;2022-08-04T00:42:40;101054.34;;;20.51;94.88
1736;BME280;865;53.672;10.250;2022-08-04T00:54:15;101048.19;;;20.50;95.13
1736;BME280;865;53.672;10.250;2022-08-04T00:57:16;101043.72;;;20.51;95.22
1736;BME280;865;53.672;10.250;2022-08-04T01:00:14;101043.41;;;20.41;95.34
1736;BME280;865;53.672;10.250;2022-08-04T01:11:03;101040.22;;;20.34;96.14
1736;BME280;865;53.672;10.250;2022-08-04T01:16:08;101035.88;;;20.33;95.88
1736;BME280;865;53.672;10.250;2022-08-04T01:18:51;101035.34;;;20.11;97.46
1736;BME280;865;53.672;10.250;2022-08-04T01:24:23;101040.88;;;19.90;98.04
1736;BME280;865;53.672;10.250;2022-08-04T01:27:04;101034.63;;;19.91;98.21
1736;BME280;865;53.672;10.250;2022-08-04T01:29:41;101035.09;;;19.99;98.51
1736;BME280;865;53.672;10.250;2022-08-04T01:34:55;101028.22;;;19.95;97.76
1736;BME280;865;53.672;10.250;2022-08-04T01:40:16;101021.06;;;19.82;98.03
1736;BME280;865;53.672;10.250;2022-08-04T01:42:43;101023.75;;;19.80;98.40
1736;BME280;865;53.672;10.250;2022-08-04T01:45:13;101026.06;;;19.86;98.54
1736;BME280;865;53.672;10.250;2022-08-04T01:47:51;101023.53;;;20.00;98.27
1736;BME280;865;53.672;10.250;2022-08-04T01:50:19;101018.19;;;20.02;97.66
1736;BME280;865;53.672;10.250;2022-08-04T01:52:47;101019.03;;;20.02;97.28
1736;BME280;865;53.672;10.250;2022-08-04T01:55:17;101017.97;;;19.89;97.58
1736;BME280;865;53.672;10.250;2022-08-04T01:57:50;101018.97;;;19.87;98.32
1736;BME280;865;53.672;10.250;2022-08-04T02:00:27;101011.97;;;19.70;98.56
1736;BME280;865;53.672;10.250;2022-08-04T02:02:55;101017.72;;;19.61;98.75
1736;BME280;865;53.672;10.250;2022-08-04T02:05:26;101015.31;;;19.56;99.22
1736;BME280;865;53.672;10.250;2022-08-04T02:08:15;101007.88;;;19.63;99.41
1736;BME280;865;53.672;10.250;2022-08-04T02:11:17;101011.81;;;19.73;98.75
1736;BME280;865;53.672;10.250;2022-08-04T02:16:42;101000.75;;;19.65;98.81
1736;BME280;865;53.672;10.250;2022-08-04T02:19:32;101002.53;;;19.64;98.77
1736;BME280;865;53.672;10.250;2022-08-04T02:22:08;101007.66;;;19.34;99.65
1736;BME280;865;53.672;10.250;2022-08-04T02:24:45;101009.22;;;19.21;99.96
1736;BME280;865;53.672;10.250;2022-08-04T02:27:13;100999.72;;;19.34;100.00
1736;BME280;865;53.672;10.250;2022-08-04T02:29:53;100999.22;;;19.43;99.52
1736;BME280;865;53.672;10.250;2022-08-04T02:32:29;101005.69;;;19.38;99.70
1736;BME280;865;53.672;10.250;2022-08-04T02:35:03;100989.41;;;19.45;99.14
1736;BME280;865;53.672;10.250;2022-08-04T02:37:32;101003.56;;;19.44;97.69
1736;BME280;865;53.672;10.250;2022-08-04T02:40:00;101004.53;;;19.26;98.12
1736;BME280;865;53.672;10.250;2022-08-04T02:42:31;101003.84;;;19.22;98.77
1736;BME280;865;53.672;10.250;2022-08-04T02:44:59;100995.84;;;18.89;100.00
1736;BME280;865;53.672;10.250;2022-08-04T02:47:27;100992.63;;;18.82;100.00
1736;BME280;865;53.672;10.250;2022-08-04T02:50:17;100995.69;;;18.92;100.00
1736;BME280;865;53.672;10.250;2022-08-04T02:52:56;100993.66;;;18.97;100.00
1736;BME280;865;53.672;10.250;2022-08-04T02:55:24;100998.47;;;19.06;100.00
1736;BME280;865;53.672;10.250;2022-08-04T02:57:53;100990.41;;;18.92;100.00
1736;BME280;865;53.672;10.250;2022-08-04T03:00:20;100989.94;;;18.84;100.00
1736;BME280;865;53.672;10.250;2022-08-04T03:03:02;100990.25;;;18.78;100.00
1736;BME280;865;53.672;10.250;2022-08-04T03:06:02;100994.69;;;18.77;100.00
1736;BME280;865;53.672;10.250;2022-08-04T03:43:49;100992.69;;;18.63;100.00
1736;BME280;865;53.672;10.250;2022-08-04T03:55:34;100990.44;;;18.37;100.00
1736;BME280;865;53.672;10.250;2022-08-04T04:01:50;100987.50;;;18.43;100.00
1736;BME280;865;53.672;10.250;2022-08-04T04:16:17;100988.06;;;18.50;100.00
1736;BME280;865;53.672;10.250;2022-08-04T04:24:05;100989.66;;;18.35;100.00
1736;BME280;865;53.672;10.250;2022-08-04T04:26:56;100985.47;;;18.31;100.00
1736;BME280;865;53.672;10.250;2022-08-04T04:29:29;100980.25;;;18.29;100.00
1736;BME280;865;53.672;10.250;2022-08-04T04:32:04;100979.47;;;18.27;100.00
1736;BME280;865;53.672;10.250;2022-08-04T04:34:52;100979.88;;;18.37;100.00
1736;BME280;865;53.672;10.250;2022-08-04T04:46:57;100975.31;;;18.94;100.00
1736;BME280;865;53.672;10.250;2022-08-04T04:52:39;100974.06;;;19.01;100.00
1736;BME280;865;53.672;10.250;2022-08-04T04:55:20;100973.13;;;19.02;100.00
1736;BME280;865;53.672;10.250;2022-08-04T04:57:50;100971.81;;;19.11;100.00
1736;BME280;865;53.672;10.250;2022-08-04T05:00:23;100975.28;;;19.29;100.00
1736;BME280;865;53.672;10.250;2022-08-04T05:03:15;100971.31;;;19.38;100.00
1736;BME280;865;53.672;10.250;2022-08-04T05:14:05;100949.16;;;20.67;97.22
1736;BME280;865;53.672;10.250;2022-08-04T05:17:04;100950.56;;;20.88;95.49
1736;BME280;865;53.672;10.250;2022-08-04T05:19:52;100943.47;;;21.03;95.08
1736;BME280;865;53.672;10.250;2022-08-04T05:22:34;100939.59;;;21.23;94.32
1736;BME280;865;53.672;10.250;2022-08-04T05:25:06;100933.03;;;21.45;93.06
1736;BME280;865;53.672;10.250;2022-08-04T05:27:41;100937.88;;;21.79;92.11
1736;BME280;865;53.672;10.250;2022-08-04T05:30:11;100937.63;;;22.11;90.13
1736;BME280;865;53.672;10.250;2022-08-04T05:32:45;100937.44;;;22.28;89.02
1736;BME280;865;53.672;10.250;2022-08-04T05:35:30;100928.81;;;22.25;89.44
1736;BME280;865;53.672;10.250;2022-08-04T05:38:21;100925.63;;;22.33;88.21
1736;BME280;865;53.672;10.250;2022-08-04T05:40:49;100927.81;;;22.53;87.72
1736;BME280;865;53.672;10.250;2022-08-04T05:43:16;100932.09;;;22.81;85.11
1736;BME280;865;53.672;10.250;2022-08-04T05:45:44;100921.22;;;22.98;84.14
1736;BME280;865;53.672;10.250;2022-08-04T05:48:13;100925.25;;;23.04;82.28
1736;BME280;865;53.672;10.250;2022-08-04T05:50:40;100917.91;;;23.33;82.09
1736;BME280;865;53.672;10.250;2022-08-04T05:53:09;100923.22;;;23.46;81.20
1736;BME280;865;53.672;10.250;2022-08-04T05:55:36;100913.91;;;23.64;80.49
1736;BME280;865;53.672;10.250;2022-08-04T05:58:23;100908.16;;;23.71;79.18
1736;BME280;865;53.672;10.250;2022-08-04T06:00:51;100907.75;;;23.51;79.92
1736;BME280;865;53.672;10.250;2022-08-04T06:03:20;100905.69;;;23.67;79.90
1736;BME280;865;53.672;10.250;2022-08-04T06:05:48;100908.84;;;23.85;78.53
1736;BME280;865;53.672;10.250;2022-08-04T06:08:15;100903.44;;;23.87;78.69
1736;BME280;865;53.672;10.250;2022-08-04T06:10:43;100905.56;;;23.95;78.26
1736;BME280;865;53.672;10.250;2022-08-04T06:13:13;100905.41;;;24.20;77.46
1736;BME280;865;53.672;10.250;2022-08-04T06:16:04;100905.00;;;24.38;76.94
1736;BME280;865;53.672;10.250;2022-08-04T06:18:32;100908.13;;;24.55;76.31
1736;BME280;865;53.672;10.250;2022-08-04T06:21:23;100909.53;;;24.72;75.71
1736;BME280;865;53.672;10.250;2022-08-04T06:23:54;100907.59;;;24.86;74.05
1736;BME280;865;53.672;10.250;2022-08-04T06:26:32;100900.09;;;24.91;73.62
1736;BME280;865;53.672;10.250;2022-08-04T06:28:59;100903.41;;;25.06;72.98
1736;BME280;865;53.672;10.250;2022-08-04T06:31:28;100902.88;;;24.89;74.64
1736;BME280;865;53.672;10.250;2022-08-04T06:34:29;100901.56;;;24.95;75.38
1736;BME280;865;53.672;10.250;2022-08-04T06:36:58;100900.00;;;25.04;75.19
1736;BME280;865;53.672;10.250;2022-08-04T06:39:26;100899.50;;;25.10;75.86
1736;BME280;865;53.672;10.250;2022-08-04T06:41:55;100905.41;;;25.37;76.01
1736;BME280;865;53.672;10.250;2022-08-04T06:44:43;100889.47;;;25.47;74.50
1736;BME280;865;53.672;10.250;2022-08-04T06:47:11;100887.03;;;25.55;74.35
1736;BME280;865;53.672;10.250;2022-08-04T06:49:40;100888.69;;;25.79;72.31
1736;BME280;865;53.672;10.250;2022-08-04T06:52:27;100887.97;;;25.88;73.04
1736;BME280;865;53.672;10.250;2022-08-04T06:54:53;100885.06;;;25.80;72.31
1736;BME280;865;53.672;10.250;2022-08-04T06:57:22;100885.16;;;26.01;73.91
1736;BME280;865;53.672;10.250;2022-08-04T06:59:53;100880.16;;;26.28;69.15
1736;BME280;865;53.672;10.250;2022-08-04T07:02:28;100883.97;;;26.47;66.86
1736;BME280;865;53.672;10.250;2022-08-04T07:04:55;100882.44;;;26.65;66.62
1736;BME280;865;53.672;10.250;2022-08-04T07:07:23;100878.31;;;26.61;65.31
1736;BME280;865;53.672;10.250;2022-08-04T07:10:03;100885.31;;;26.73;68.08
1736;BME280;865;53.672;10.250;2022-08-04T07:12:33;100876.63;;;26.81;66.56
1736;BME280;865;53.672;10.250;2022-08-04T07:15:00;100884.41;;;26.63;63.78
1736;BME280;865;53.672;10.250;2022-08-04T07:17:27;100884.28;;;26.32;63.77
1736;BME280;865;53.672;10.250;2022-08-04T07:20:00;100879.97;;;26.41;65.23
1736;BME280;865;53.672;10.250;2022-08-04T07:22:27;100876.94;;;26.46;63.72
1736;BME280;865;53.672;10.250;2022-08-04T07:24:55;100877.81;;;26.67;63.04
1736;BME280;865;53.672;10.250;2022-08-04T07:27:23;100882.88;;;26.70;61.33
1736;BME280;865;53.672;10.250;2022-08-04T07:30:09;100879.66;;;26.97;61.00
1736;BME280;865;53.672;10.250;2022-08-04T07:32:37;100868.38;;;27.15;61.34
1736;BME280;865;53.672;10.250;2022-08-04T07:35:05;100867.34;;;27.37;61.50
1736;BME280;865;53.672;10.250;2022-08-04T07:37:32;100874.28;;;27.49;60.65
1736;BME280;865;53.672;10.250;2022-08-04T07:40:06;100879.16;;;27.34;58.75
1736;BME280;865;53.672;10.250;2022-08-04T07:42:32;100867.34;;;27.37;59.09
1736;BME280;865;53.672;10.250;2022-08-04T07:44:59;100877.59;;;27.32;59.90
1736;BME280;865;53.672;10.250;2022-08-04T07:47:26;100859.63;;;27.53;60.56
1736;BME280;865;53.672;10.250;2022-08-04T07:49:54;100863.31;;;27.71;58.37
1736;BME280;865;53.672;10.250;2022-08-04T07:52:24;100860.44;;;27.94;59.03
1736;BME280;865;53.672;10.250;2022-08-04T07:54:54;100859.28;;;28.26;58.94
1736;BME280;865;53.672;10.250;2022-08-04T07:57:21;100858.00;;;28.10;55.74
1736;BME280;865;53.672;10.250;2022-08-04T08:00:08;100856.19;;;28.11;55.32
1736;BME280;865;53.672;10.250;2022-08-04T08:02:35;100848.00;;;28.22;54.26
1736;BME280;865;53.672;10.250;2022-08-04T08:05:03;100853.91;;;28.26;53.51
1736;BME280;865;53.672;10.250;2022-08-04T08:07:30;100850.25;;;28.27;53.74
1736;BME280;865;53.672;10.250;2022-08-04T08:09:57;100848.94;;;28.40;54.52
1736;BME280;865;53.672;10.250;2022-08-04T08:12:23;100847.09;;;28.70;53.72
1736;BME280;865;53.672;10.250;2022-08-04T08:15:10;100856.41;;;28.76;51.98
1736;BME280;865;53.672;10.250;2022-08-04T08:17:41;100848.19;;;28.87;51.91
1736;BME280;865;53.672;10.250;2022-08-04T08:20:27;100837.69;;;28.94;50.96
1736;BME280;865;53.672;10.250;2022-08-04T08:22:55;100843.81;;;28.86;52.89
1736;BME280;865;53.672;10.250;2022-08-04T08:25:22;100848.94;;;29.17;52.23
1736;BME280;865;53.672;10.250;2022-08-04T08:27:48;100844.88;;;29.40;51.39
1736;BME280;865;53.672;10.250;2022-08-04T08:30:22;100840.19;;;29.70;49.77
1736;BME280;865;53.672;10.250;2022-08-04T08:32:49;100841.81;;;29.98;49.88
1736;BME280;865;53.672;10.250;2022-08-04T08:35:16;100830.75;;;29.84;46.67
1736;BME280;865;53.672;10.250;2022-08-04T08:37:49;100837.34;;;29.89;47.99
1736;BME280;865;53.672;10.250;2022-08-04T08:40:28;100828.69;;;29.78;47.56
1736;BME280;865;53.672;10.250;2022-08-04T08:49:00;100825.34;;;30.37;45.22
1736;BME280;865;53.672;10.250;2022-08-04T08:57:20;100826.81;;;30.14;46.04
1736;BME280;865;53.672;10.250;2022-08-04T09:00:05;100814.38;;;29.77;46.71
1736;BME280;865;53.672;10.250;2022-08-04T09:02:37;100815.81;;;29.89;46.98
1736;BME280;865;53.672;10.250;2022-08-04T09:05:35;100814.91;;;30.16;45.73
1736;BME280;865;53.672;10.250;2022-08-04T09:08:18;100820.53;;;30.23;45.50
1736;BME280;865;53.672;10.250;2022-08-04T09:11:18;100814.03;;;30.34;45.27
1736;BME280;865;53.672;10.250;2022-08-04T09:14:04;100810.31;;;30.53;44.41
1736;BME280;865;53.672;10.250;2022-08-04T09:17:01;100806.66;;;30.62;43.42
1736;BME280;865;53.672;10.250;2022-08-04T09:19:51;100809.16;;;30.81;45.16
1736;BME280;865;53.672;10.250;2022-08-04T09:22:44;100799.16;;;31.08;43.50
1736;BME280;865;53.672;10.250;2022-08-04T09:25:35;100800.06;;;31.25;40.76
1736;BME280;865;53.672;10.250;2022-08-04T09:28:15;100796.56;;;31.32;39.73
1736;BME280;865;53.672;10.250;2022-08-04T09:31:15;100797.75;;;31.30;39.16
1736;BME280;865;53.672;10.250;2022-08-04T09:36:50;100794.78;;;31.58;38.94
1736;BME280;865;53.672;10.250;2022-08-04T09:39:26;100795.94;;;31.47;39.03
1736;BME280;865;53.672;10.250;2022-08-04T09:42:07;100795.47;;;31.60;39.43
1736;BME280;865;53.672;10.250;2022-08-04T09:44:51;100792.63;;;31.77;38.78
1736;BME280;865;53.672;10.250;2022-08-04T09:47:42;100789.28;;;31.84;38.19
1736;BME280;865;53.672;10.250;2022-08-04T09:50:33;100788.63;;;31.90;38.53
1736;BME280;865;53.672;10.250;2022-08-04T09:55:41;100783.91;;;31.92;35.61
1736;BME280;865;53.672;10.250;2022-08-04T09:58:38;100785.41;;;31.86;35.88
1736;BME280;865;53.672;10.250;2022-08-04T10:01:10;100779.50;;;31.91;35.06
1736;BME280;865;53.672;10.250;2022-08-04T10:03:41;100780.84;;;32.11;34.62
1736;BME280;865;53.672;10.250;2022-08-04T10:06:47;100782.56;;;32.04;34.02
1736;BME280;865;53.672;10.250;2022-08-04T10:09:33;100775.28;;;31.80;34.05
1736;BME280;865;53.672;10.250;2022-08-04T10:14:51;100766.84;;;31.99;33.27
1736;BME280;865;53.672;10.250;2022-08-04T10:17:29;100768.22;;;31.95;33.91
1736;BME280;865;53.672;10.250;2022-08-04T10:22:35;100765.84;;;32.25;33.01
1736;BME280;865;53.672;10.250;2022-08-04T10:28:40;100759.41;;;32.42;31.13
1736;BME280;865;53.672;10.250;2022-08-04T10:31:15;100756.16;;;32.55;31.00
1736;BME280;865;53.672;10.250;2022-08-04T10:36:19;100760.06;;;32.36;34.50
1736;BME280;865;53.672;10.250;2022-08-04T10:38:55;100757.16;;;32.62;34.53
1736;BME280;865;53.672;10.250;2022-08-04T10:41:33;100746.94;;;32.81;34.49
1736;BME280;865;53.672;10.250;2022-08-04T10:44:30;100749.78;;;33.27;34.75
1736;BME280;865;53.672;10.250;2022-08-04T10:47:13;100740.13;;;33.32;33.16
1736;BME280;865;53.672;10.250;2022-08-04T10:49:54;100742.78;;;33.09;34.40
1736;BME280;865;53.672;10.250;2022-08-04T10:52:35;100740.75;;;33.11;34.24
1736;BME280;865;53.672;10.250;2022-08-04T10:55:16;100731.84;;;33.03;34.72
1736;BME280;865;53.672;10.250;2022-08-04T11:00:25;100728.47;;;33.01;34.65
1736;BME280;865;53.672;10.250;2022-08-04T11:05:47;100723.13;;;33.24;34.63
1736;BME280;865;53.672;10.250;2022-08-04T11:11:30;100723.16;;;33.16;34.27
1736;BME280;865;53.672;10.250;2022-08-04T11:14:19;100719.50;;;33.08;32.95
1736;BME280;865;53.672;10.250;2022-08-04T11:16:52;100724.25;;;33.29;33.43
1736;BME280;865;53.672;10.250;2022-08-04T11:19:41;100722.75;;;33.27;31.73
1736;BME280;865;53.672;10.250;2022-08-04T11:25:09;100707.25;;;33.21;30.75
1736;BME280;865;53.672;10.250;2022-08-04T11:30:35;100714.16;;;33.46;32.10
1736;BME280;865;53.672;10.250;2022-08-04T11:35:56;100707.19;;;33.29;32.02
1736;BME280;865;53.672;10.250;2022-08-04T11:38:36;100701.47;;;33.24;31.08
1736;BME280;865;53.672;10.250;2022-08-04T11:41:13;100707.00;;;33.62;31.55
1736;BME280;865;53.672;10.250;2022-08-04T11:43:55;100705.53;;;33.51;31.11
1736;BME280;865;53.672;10.250;2022-08-04T11:46:40;100702.22;;;33.64;30.34
1736;BME280;865;53.672;10.250;2022-08-04T11:49:19;100709.91;;;33.75;30.87
1736;BME280;865;53.672;10.250;2022-08-04T11:51:49;100699.38;;;33.80;29.91
1736;BME280;865;53.672;10.250;2022-08-04T11:54:18;100702.13;;;33.95;30.19
1736;BME280;865;53.672;10.250;2022-08-04T11:56:45;100698.50;;;34.17;30.83
1736;BME280;865;53.672;10.250;2022-08-04T11:59:13;100691.72;;;34.07;29.81
1736;BME280;865;53.672;10.250;2022-08-04T12:02:06;100690.66;;;33.70;30.25
1736;BME280;865;53.672;10.250;2022-08-04T12:05:01;100699.91;;;33.75;31.20
1736;BME280;865;53.672;10.250;2022-08-04T12:07:58;100677.75;;;33.95;30.46
1736;BME280;865;53.672;10.250;2022-08-04T12:19:06;100667.13;;;34.23;30.37
1736;BME280;865;53.672;10.250;2022-08-04T12:21:43;100671.34;;;34.40;30.32
1736;BME280;865;53.672;10.250;2022-08-04T12:24:26;100667.88;;;34.17;29.68
1736;BME280;865;53.672;10.250;2022-08-04T12:27:01;100658.59;;;33.96;30.62
1736;BME280;865;53.672;10.250;2022-08-04T12:29:32;100666.88;;;33.65;30.38
1736;BME280;865;53.672;10.250;2022-08-04T12:32:05;100662.25;;;33.51;30.01
1736;BME280;865;53.672;10.250;2022-08-04T12:34:45;100659.69;;;33.72;30.78
1736;BME280;865;53.672;10.250;2022-08-04T12:37:28;100658.19;;;33.70;29.66
1736;BME280;865;53.672;10.250;2022-08-04T12:40:02;100663.78;;;34.06;29.56
1736;BME280;865;53.672;10.250;2022-08-04T12:45:56;100642.72;;;34.53;28.51
1736;BME280;865;53.672;10.250;2022-08-04T12:48:26;100637.53;;;34.36;28.23
1736;BME280;865;53.672;10.250;2022-08-04T12:50:54;100634.63;;;34.38;28.52
1736;BME280;865;53.672;10.250;2022-08-04T12:53:34;100643.81;;;34.22;28.33
1736;BME280;865;53.672;10.250;2022-08-04T12:56:24;100635.19;;;34.48;27.92
1736;BME280;865;53.672;10.250;2022-08-04T12:58:52;100636.31;;;34.39;28.39
1736;BME280;865;53.672;10.250;2022-08-04T13:01:25;100629.44;;;34.07;28.20
1736;BME280;865;53.672;10.250;2022-08-04T13:04:19;100636.09;;;33.96;28.51
1736;BME280;865;53.672;10.250;2022-08-04T13:07:08;100633.31;;;33.89;29.63
1736;BME280;865;53.672;10.250;2022-08-04T13:09:36;100619.97;;;34.32;29.38
1736;BME280;865;53.672;10.250;2022-08-04T13:12:10;100621.31;;;34.07;28.55
1736;BME280;865;53.672;10.250;2022-08-04T13:14:39;100615.94;;;33.98;28.91
1736;BME280;865;53.672;10.250;2022-08-04T13:17:10;100618.63;;;33.69;29.08
1736;BME280;865;53.672;10.250;2022-08-04T13:19:37;100613.59;;;33.66;28.83
1736;BME280;865;53.672;10.250;2022-08-04T13:22:07;100617.72;;;33.76;30.62
1736;BME280;865;53.672;10.250;2022-08-04T13:24:36;100609.22;;;33.79;29.29
1736;BME280;865;53.672;10.250;2022-08-04T13:27:24;100607.16;;;34.41;28.84
1736;BME280;865;53.672;10.250;2022-08-04T13:29:54;100607.94;;;34.71;27.87
1736;BME280;865;53.672;10.250;2022-08-04T13:32:28;100612.59;;;34.77;27.28
1736;BME280;865;53.672;10.250;2022-08-04T13:34:59;100606.28;;;34.70;27.33
1736;BME280;865;53.672;10.250;2022-08-04T13:37:32;100611.66;;;34.34;28.13
1736;BME280;865;53.672;10.250;2022-08-04T13:40:03;100598.09;;;34.63;28.05
1736;BME280;865;53.672;10.250;2022-08-04T13:42:30;100591.06;;;34.90;27.27
1736;BME280;865;53.672;10.250;2022-08-04T13:45:02;100585.22;;;35.08;26.37
1736;BME280;865;53.672;10.250;2022-08-04T13:47:31;100580.22;;;34.90;27.76
1736;BME280;865;53.672;10.250;2022-08-04T13:50:25;100579.59;;;35.10;27.70
1736;BME280;865;53.672;10.250;2022-08-04T13:52:54;100572.94;;;34.91;27.72
1736;BME280;865;53.672;10.250;2022-08-04T13:55:22;100572.88;;;35.06;27.45
1736;BME280;865;53.672;10.250;2022-08-04T13:57:54;100563.84;;;35.20;27.47
1736;BME280;865;53.672;10.250;2022-08-04T14:00:24;100566.06;;;34.95;27.05
1736;BME280;865;53.672;10.250;2022-08-04T14:03:01;100563.41;;;35.17;27.87
1736;BME280;865;53.672;10.250;2022-08-04T14:06:07;100552.06;;;34.70;27.15
1736;BME280;865;53.672;10.250;2022-08-04T14:09:14;100561.03;;;34.34;28.74
1736;BME280;865;53.672;10.250;2022-08-04T14:11:43;100552.97;;;34.05;28.65
1736;BME280;865;53.672;10.250;2022-08-04T14:14:32;100554.72;;;33.83;29.25
1736;BME280;865;53.672;10.250;2022-08-04T14:17:10;100555.09;;;33.79;28.11
1736;BME280;865;53.672;10.250;2022-08-04T14:27:40;100540.16;;;34.13;30.07
1736;BME280;865;53.672;10.250;2022-08-04T14:30:23;100533.91;;;34.49;28.29
1736;BME280;865;53.672;10.250;2022-08-04T14:33:16;100540.03;;;34.73;29.12
1736;BME280;865;53.672;10.250;2022-08-04T14:36:04;100535.81;;;34.70;28.20
1736;BME280;865;53.672;10.250;2022-08-04T14:38:51;100537.38;;;34.58;28.77
1736;BME280;865;53.672;10.250;2022-08-04T14:41:28;100534.28;;;34.61;28.85
1736;BME280;865;53.672;10.250;2022-08-04T14:43:58;100535.81;;;34.70;28.20
1736;BME280;865;53.672;10.250;2022-08-04T14:46:26;100535.88;;;34.77;28.64
1736;BME280;865;53.672;10.250;2022-08-04T14:49:09;100541.81;;;34.65;29.78
1736;BME280;865;53.672;10.250;2022-08-04T14:51:44;100541.28;;;34.55;30.20
1736;BME280;865;53.672;10.250;2022-08-04T14:54:13;100538.50;;;34.48;30.26
1736;BME280;865;53.672;10.250;2022-08-04T14:56:51;100540.03;;;34.36;31.51
1736;BME280;865;53.672;10.250;2022-08-04T14:59:18;100544.66;;;34.06;30.73
1736;BME280;865;53.672;10.250;2022-08-04T15:01:46;100543.78;;;33.76;29.76
1736;BME280;865;53.672;10.250;2022-08-04T15:04:28;100548.63;;;33.51;31.04
1736;BME280;865;53.672;10.250;2022-08-04T15:06:55;100556.41;;;33.46;31.47
1736;BME280;865;53.672;10.250;2022-08-04T15:09:22;100570.06;;;33.52;31.01
1736;BME280;865;53.672;10.250;2022-08-04T15:11:49;100582.97;;;33.27;31.58
1736;BME280;865;53.672;10.250;2022-08-04T15:14:15;100583.19;;;32.72;33.69
1736;BME280;865;53.672;10.250;2022-08-04T15:17:02;100600.84;;;32.51;35.42
1736;BME280;865;53.672;10.250;2022-08-04T15:19:33;100600.00;;;32.11;38.09
1736;BME280;865;53.672;10.250;2022-08-04T15:22:01;100595.38;;;31.56;40.43
1736;BME280;865;53.672;10.250;2022-08-04T15:24:28;100597.59;;;31.36;41.79
1736;BME280;865;53.672;10.250;2022-08-04T15:26:56;100586.88;;;30.77;43.54
1736;BME280;865;53.672;10.250;2022-08-04T15:29:37;100585.00;;;30.70;44.69
1736;BME280;865;53.672;10.250;2022-08-04T15:32:30;100604.69;;;30.62;45.75
1736;BME280;865;53.672;10.250;2022-08-04T15:35:03;100619.75;;;30.38;46.63
1736;BME280;865;53.672;10.250;2022-08-04T15:40:47;100628.75;;;29.69;50.38
1736;BME280;865;53.672;10.250;2022-08-04T15:46:11;100631.13;;;29.00;53.74
1736;BME280;865;53.672;10.250;2022-08-04T15:49:25;100634.31;;;28.68;54.84
1736;BME280;865;53.672;10.250;2022-08-04T15:52:04;100642.63;;;28.47;55.75
1736;BME280;865;53.672;10.250;2022-08-04T15:54:38;100637.19;;;28.20;57.01
1736;BME280;865;53.672;10.250;2022-08-04T15:57:08;100652.94;;;27.95;56.72
1736;BME280;865;53.672;10.250;2022-08-04T16:08:09;100752.53;;;27.22;56.83
1736;BME280;865;53.672;10.250;2022-08-04T16:10:39;100784.53;;;26.93;57.28
1736;BME280;865;53.672;10.250;2022-08-04T16:13:11;100861.69;;;26.78;57.92
1736;BME280;865;53.672;10.250;2022-08-04T16:15:41;100914.69;;;26.64;58.89
1736;BME280;865;53.672;10.250;2022-08-04T16:18:09;100958.63;;;26.18;62.02
1736;BME280;865;53.672;10.250;2022-08-04T16:20:54;100974.97;;;25.47;64.36
1736;BME280;865;53.672;10.250;2022-08-04T16:29:23;100967.72;;;23.70;82.30
1736;BME280;865;53.672;10.250;2022-08-04T16:32:21;100927.81;;;22.53;85.22
1736;BME280;865;53.672;10.250;2022-08-04T16:35:02;100892.69;;;22.48;88.73
1736;BME280;865;53.672;10.250;2022-08-04T16:37:37;100848.97;;;21.99;89.74
1736;BME280;865;53.672;10.250;2022-08-04T16:43:11;100876.53;;;21.84;100.00
1736;BME280;865;53.672;10.250;2022-08-04T16:48:17;100874.66;;;21.72;100.00
1736;BME280;865;53.672;10.250;2022-08-04T16:50:46;100864.03;;;21.72;100.00
1736;BME280;865;53.672;10.250;2022-08-04T16:53:14;100867.59;;;21.85;100.00
1736;BME280;865;53.672;10.250;2022-08-04T16:56:02;100852.09;;;21.92;100.00
1736;BME280;865;53.672;10.250;2022-08-04T16:58:32;100842.00;;;21.84;100.00
1736;BME280;865;53.672;10.250;2022-08-04T17:01:11;100826.34;;;21.79;100.00
1736;BME280;865;53.672;10.250;2022-08-04T17:03:51;100835.28;;;21.78;100.00
1736;BME280;865;53.672;10.250;2022-08-04T17:06:33;100832.38;;;21.69;100.00
1736;BME280;865;53.672;10.250;2022-08-04T17:09:14;100820.34;;;21.63;100.00
1736;BME280;865;53.672;10.250;2022-08-04T17:11:42;100815.03;;;21.63;100.00
1736;BME280;865;53.672;10.250;2022-08-04T17:14:10;100813.38;;;21.48;100.00
1736;BME280;865;53.672;10.250;2022-08-04T17:16:39;100811.25;;;21.53;100.00
1736;BME280;865;53.672;10.250;2022-08-04T17:19:07;100813.91;;;21.53;100.00
1736;BME280;865;53.672;10.250;2022-08-04T17:21:56;100781.03;;;21.41;99.84
1736;BME280;865;53.672;10.250;2022-08-04T17:24:36;100767.56;;;21.71;99.96
1736;BME280;865;53.672;10.250;2022-08-04T17:27:05;100758.31;;;21.64;97.86
1736;BME280;865;53.672;10.250;2022-08-04T17:29:51;100744.25;;;21.49;98.12